Admiral — WCY6529 — position and weather

sailwx.info

Track history (hours):
 
Tides and Currents Weather Stations Pressure Air Temp Water Temp Dewpoint Dewpoint Depression Visibility Wind Speed Wind Dir Waves Ship Positions

Admiral

Owner: CROWLEY MARINE SERVICES INC, SEATTLE, WA. More information available from US FCC via Universal Licensing System and Coast Guard Vessel Documentation Center.

Last reported at 2014-Dec-19 13:32 UTC. Time now 2014-Dec-19 14:26 UTC.
Position N 33°45' W 118°16'.

; draft 5.3 m.

Type: Tug. MMSI: 366755020.

Date/timePositionNaut miles runAvg speedWind from/ knotsBaromVisibWave heightAir tempDewpointWater temp
2014-Dec-19 13:32N 33°45' W 118°16'5 1.0
2014-Dec-19 08:33N 33°44' W 118°11'3 2.3
2014-Dec-19 07:28N 33°45' W 118°13'1 1.0
2014-Dec-19 06:31N 33°44' W 118°13'1 0.2
2014-Dec-19 01:33N 33°44' W 118°12'1 1.2
2014-Dec-19 00:32N 33°45' W 118°13'0 0.3
2014-Dec-18 23:34N 33°45' W 118°13'0 0.1
2014-Dec-18 22:30N 33°45' W 118°13'3 3.0
2014-Dec-18 21:32N 33°44' W 118°10'2 0.3
2014-Dec-18 14:10N 33°44' W 118°12'0 0.3
2014-Dec-18 13:33N 33°45' W 118°12'0 0.3
2014-Dec-18 12:15N 33°44' W 118°12'2 3.1
2014-Dec-18 11:33N 33°46' W 118°13'2 1.7
2014-Dec-18 10:32N 33°45' W 118°13'0 0.0
2014-Dec-18 00:23N 33°44' W 118°13'2 2.3
2014-Dec-17 23:33N 33°46' W 118°13'0 0.0
2014-Dec-17 22:33N 33°46' W 118°13'2 2.3
2014-Dec-17 21:33N 33°44' W 118°13'0 0.0
2014-Dec-17 14:06N 33°44' W 118°13'1 2.6
2014-Dec-17 13:32N 33°45' W 118°14'2 1.7
2014-Dec-17 12:18N 33°43' W 118°13'1 0.1
2014-Dec-17 04:28N 33°44' W 118°13'1 0.7
2014-Dec-17 03:24N 33°44' W 118°13'0 0.1
2014-Dec-17 02:31N 33°44' W 118°13'0 0.0
2014-Dec-16 22:12N 33°44' W 118°13'2 2.7
2014-Dec-16 21:33N 33°45' W 118°13'0 0.3
2014-Dec-16 20:33N 33°45' W 118°13'3 3.0
2014-Dec-16 19:27N 33°44' W 118°09'6 1.5
2014-Dec-16 15:18N 33°45' W 118°17'0 0.2
2014-Dec-16 13:33N 33°45' W 118°16'1 0.6
2014-Dec-16 12:34N 33°45' W 118°17'0 0.0
2014-Dec-16 00:26N 33°45' W 118°16'0 0.1
2014-Dec-15 23:33N 33°45' W 118°17'0 0.0
2014-Dec-15 14:09N 33°45' W 118°16'0 0.0
2014-Dec-15 12:15N 33°45' W 118°16'0 0.1
2014-Dec-15 11:07N 33°45' W 118°16'0 0.1
2014-Dec-15 09:04N 33°45' W 118°16'1 2.3
2014-Dec-15 08:33N 33°46' W 118°16'2 0.4
2014-Dec-15 02:26N 33°44' W 118°15'13 1.8
2014-Dec-14 19:08N 33°51' W 118°28'3 5.3
2014-Dec-14 18:33N 33°54' W 118°27'2 1.7
2014-Dec-14 17:33N 33°53' W 118°28'0 0.2
2014-Dec-14 16:31N 33°53' W 118°28'0 0.1
2014-Dec-14 15:33N 33°53' W 118°28'14 4.7
2014-Dec-14 12:29N 33°45' W 118°13'0 0.0
2014-Dec-14 11:33N 33°45' W 118°13'1 0.5
2014-Dec-14 10:33N 33°46' W 118°13'3 2.6
2014-Dec-14 09:29N 33°43' W 118°11'1 0.7
2014-Dec-14 08:11N 33°44' W 118°12'1 2.3
2014-Dec-14 07:34N 33°45' W 118°13'0 0.3
2014-Dec-14 06:33N 33°45' W 118°13'1 1.0
2014-Dec-14 05:33N 33°46' W 118°14'2 0.4
2014-Dec-13 23:29N 33°45' W 118°16'1 1.0
2014-Dec-13 22:34N 33°46' W 118°17'4 0.5
2014-Dec-13 14:26N 33°43' W 118°13'2 1.0
2014-Dec-13 12:24N 33°43' W 118°11'3 3.4
2014-Dec-13 11:33N 33°45' W 118°13'0 0.0
2014-Dec-13 10:34N 33°45' W 118°13'0 0.2
2014-Dec-13 09:33N 33°45' W 118°13'3 0.5
2014-Dec-13 03:18N 33°44' W 118°17'1 1.2
2014-Dec-13 02:28N 33°45' W 118°16'0 0.4
2014-Dec-13 01:32N 33°45' W 118°16'3 0.1
2014-Dec-12 00:13N 33°44' W 118°13'1 1.4
2014-Dec-11 23:33N 33°45' W 118°12'0 0.4
2014-Dec-11 22:33N 33°45' W 118°13'0 0.1
2014-Dec-11 21:33N 33°45' W 118°13'2 0.2
2014-Dec-11 12:26N 33°44' W 118°15'1 0.2
2014-Dec-11 07:05N 33°44' W 118°17'2 1.0
2014-Dec-11 04:33N 33°43' W 118°14'2 2.4
2014-Dec-11 03:33N 33°45' W 118°13'2 2.2
2014-Dec-11 02:33N 33°43' W 118°14'3 3.0
2014-Dec-11 01:33N 33°46' W 118°16'0 0.1
2014-Dec-11 00:34N 33°46' W 118°16'1 1.5
2014-Dec-10 23:34N 33°44' W 118°17'0 0.0
2014-Dec-10 22:33N 33°44' W 118°17'0 0.0
2014-Dec-10 21:33N 33°44' W 118°17'0 0.0
2014-Dec-10 19:14N 33°44' W 118°17'0 0.0
2014-Dec-10 18:31N 33°44' W 118°17'0 0.0
2014-Dec-10 17:32N 33°44' W 118°17'0 0.0
2014-Dec-10 16:17N 33°44' W 118°17'0 0.0
2014-Dec-10 15:28N 33°44' W 118°17'3 3.5
2014-Dec-10 14:33N 33°46' W 118°13'2 1.9
2014-Dec-10 13:33N 33°44' W 118°12'1 0.8
2014-Dec-10 12:33N 33°44' W 118°12'1 1.4
2014-Dec-10 11:34N 33°45' W 118°13'2 1.8
2014-Dec-10 10:33N 33°46' W 118°13'2 2.0
2014-Dec-10 09:32N 33°44' W 118°13'1 1.2
2014-Dec-10 08:33N 33°46' W 118°13'3 2.8
2014-Dec-10 07:32N 33°43' W 118°15'2 2.3
2014-Dec-10 06:33N 33°44' W 118°17'0 0.0
2014-Dec-10 05:32N 33°44' W 118°17'0 0.0
2014-Dec-10 04:33N 33°44' W 118°17'2 2.4
2014-Dec-10 03:34N 33°43' W 118°14'4 3.7
2014-Dec-10 02:34N 33°46' W 118°13'1 0.7
2014-Dec-10 01:34N 33°46' W 118°13'6 5.8
2014-Dec-10 00:33N 33°41' W 118°11'5 4.8
2014-Dec-09 23:33N 33°45' W 118°13'2 2.1
2014-Dec-09 22:33N 33°43' W 118°14'3 2.8
2014-Dec-09 21:34N 33°45' W 118°16'1 1.1
2014-Dec-09 20:34N 33°44' W 118°17'0 0.0
2014-Dec-09 18:25N 33°44' W 118°17'0 0.0
2014-Dec-09 17:31N 33°44' W 118°17'3 3.3
2014-Dec-09 16:33N 33°45' W 118°13'2 2.0
2014-Dec-09 15:34N 33°46' W 118°13'0 0.3
2014-Dec-09 14:33N 33°46' W 118°13'2 1.6
2014-Dec-09 13:33N 33°45' W 118°13'  
Track history (hours):
 
Tides and Currents Weather Stations Pressure Air Temp Water Temp Dewpoint Dewpoint Depression Visibility Wind Speed Wind Dir Waves Ship Positions

Admiral

Owner: CROWLEY MARINE SERVICES INC, SEATTLE, WA. More information available from US FCC via Universal Licensing System and Coast Guard Vessel Documentation Center.

Last reported at 2014-Dec-19 13:32 UTC. Time now 2014-Dec-19 14:26 UTC.
Position N 33°45' W 118°16'.

; draft 5.3 m.

Type: Tug. MMSI: 366755020.

Date/timePositionNaut miles runAvg speedWind from/ knotsBaromVisibWave heightAir tempDewpointWater temp
2014-Dec-19 13:32N 33°45' W 118°16'5 1.0
2014-Dec-19 08:33N 33°44' W 118°11'3 2.3
2014-Dec-19 07:28N 33°45' W 118°13'1 1.0
2014-Dec-19 06:31N 33°44' W 118°13'1 0.2
2014-Dec-19 01:33N 33°44' W 118°12'1 1.2
2014-Dec-19 00:32N 33°45' W 118°13'0 0.3
2014-Dec-18 23:34N 33°45' W 118°13'0 0.1
2014-Dec-18 22:30N 33°45' W 118°13'3 3.0
2014-Dec-18 21:32N 33°44' W 118°10'2 0.3
2014-Dec-18 14:10N 33°44' W 118°12'0 0.3
2014-Dec-18 13:33N 33°45' W 118°12'0 0.3
2014-Dec-18 12:15N 33°44' W 118°12'2 3.1
2014-Dec-18 11:33N 33°46' W 118°13'2 1.7
2014-Dec-18 10:32N 33°45' W 118°13'0 0.0
2014-Dec-18 00:23N 33°44' W 118°13'2 2.3
2014-Dec-17 23:33N 33°46' W 118°13'0 0.0
2014-Dec-17 22:33N 33°46' W 118°13'2 2.3
2014-Dec-17 21:33N 33°44' W 118°13'0 0.0
2014-Dec-17 14:06N 33°44' W 118°13'1 2.6
2014-Dec-17 13:32N 33°45' W 118°14'2 1.7
2014-Dec-17 12:18N 33°43' W 118°13'1 0.1
2014-Dec-17 04:28N 33°44' W 118°13'1 0.7
2014-Dec-17 03:24N 33°44' W 118°13'0 0.1
2014-Dec-17 02:31N 33°44' W 118°13'0 0.0
2014-Dec-16 22:12N 33°44' W 118°13'2 2.7
2014-Dec-16 21:33N 33°45' W 118°13'0 0.3
2014-Dec-16 20:33N 33°45' W 118°13'3 3.0
2014-Dec-16 19:27N 33°44' W 118°09'6 1.5
2014-Dec-16 15:18N 33°45' W 118°17'0 0.2
2014-Dec-16 13:33N 33°45' W 118°16'1 0.6
2014-Dec-16 12:34N 33°45' W 118°17'0 0.0
2014-Dec-16 00:26N 33°45' W 118°16'0 0.1
2014-Dec-15 23:33N 33°45' W 118°17'0 0.0
2014-Dec-15 14:09N 33°45' W 118°16'0 0.0
2014-Dec-15 12:15N 33°45' W 118°16'0 0.1
2014-Dec-15 11:07N 33°45' W 118°16'0 0.1
2014-Dec-15 09:04N 33°45' W 118°16'1 2.3
2014-Dec-15 08:33N 33°46' W 118°16'2 0.4
2014-Dec-15 02:26N 33°44' W 118°15'13 1.8
2014-Dec-14 19:08N 33°51' W 118°28'3 5.3
2014-Dec-14 18:33N 33°54' W 118°27'2 1.7
2014-Dec-14 17:33N 33°53' W 118°28'0 0.2
2014-Dec-14 16:31N 33°53' W 118°28'0 0.1
2014-Dec-14 15:33N 33°53' W 118°28'14 4.7
2014-Dec-14 12:29N 33°45' W 118°13'0 0.0
2014-Dec-14 11:33N 33°45' W 118°13'1 0.5
2014-Dec-14 10:33N 33°46' W 118°13'3 2.6
2014-Dec-14 09:29N 33°43' W 118°11'1 0.7
2014-Dec-14 08:11N 33°44' W 118°12'1 2.3
2014-Dec-14 07:34N 33°45' W 118°13'0 0.3
2014-Dec-14 06:33N 33°45' W 118°13'1 1.0
2014-Dec-14 05:33N 33°46' W 118°14'2 0.4
2014-Dec-13 23:29N 33°45' W 118°16'1 1.0
2014-Dec-13 22:34N 33°46' W 118°17'4 0.5
2014-Dec-13 14:26N 33°43' W 118°13'2 1.0
2014-Dec-13 12:24N 33°43' W 118°11'3 3.4
2014-Dec-13 11:33N 33°45' W 118°13'0 0.0
2014-Dec-13 10:34N 33°45' W 118°13'0 0.2
2014-Dec-13 09:33N 33°45' W 118°13'3 0.5
2014-Dec-13 03:18N 33°44' W 118°17'1 1.2
2014-Dec-13 02:28N 33°45' W 118°16'0 0.4
2014-Dec-13 01:32N 33°45' W 118°16'3 0.1
2014-Dec-12 00:13N 33°44' W 118°13'1 1.4
2014-Dec-11 23:33N 33°45' W 118°12'0 0.4
2014-Dec-11 22:33N 33°45' W 118°13'0 0.1
2014-Dec-11 21:33N 33°45' W 118°13'2 0.2
2014-Dec-11 12:26N 33°44' W 118°15'1 0.2
2014-Dec-11 07:05N 33°44' W 118°17'2 1.0
2014-Dec-11 04:33N 33°43' W 118°14'2 2.4
2014-Dec-11 03:33N 33°45' W 118°13'2 2.2
2014-Dec-11 02:33N 33°43' W 118°14'3 3.0
2014-Dec-11 01:33N 33°46' W 118°16'0 0.1
2014-Dec-11 00:34N 33°46' W 118°16'1 1.5
2014-Dec-10 23:34N 33°44' W 118°17'0 0.0
2014-Dec-10 22:33N 33°44' W 118°17'0 0.0
2014-Dec-10 21:33N 33°44' W 118°17'0 0.0
2014-Dec-10 19:14N 33°44' W 118°17'0 0.0
2014-Dec-10 18:31N 33°44' W 118°17'0 0.0
2014-Dec-10 17:32N 33°44' W 118°17'0 0.0
2014-Dec-10 16:17N 33°44' W 118°17'0 0.0
2014-Dec-10 15:28N 33°44' W 118°17'3 3.5
2014-Dec-10 14:33N 33°46' W 118°13'2 1.9
2014-Dec-10 13:33N 33°44' W 118°12'1 0.8
2014-Dec-10 12:33N 33°44' W 118°12'1 1.4
2014-Dec-10 11:34N 33°45' W 118°13'2 1.8
2014-Dec-10 10:33N 33°46' W 118°13'2 2.0
2014-Dec-10 09:32N 33°44' W 118°13'1 1.2
2014-Dec-10 08:33N 33°46' W 118°13'3 2.8
2014-Dec-10 07:32N 33°43' W 118°15'2 2.3
2014-Dec-10 06:33N 33°44' W 118°17'0 0.0
2014-Dec-10 05:32N 33°44' W 118°17'0 0.0
2014-Dec-10 04:33N 33°44' W 118°17'2 2.4
2014-Dec-10 03:34N 33°43' W 118°14'4 3.7
2014-Dec-10 02:34N 33°46' W 118°13'1 0.7
2014-Dec-10 01:34N 33°46' W 118°13'6 5.8
2014-Dec-10 00:33N 33°41' W 118°11'5 4.8
2014-Dec-09 23:33N 33°45' W 118°13'2 2.1
2014-Dec-09 22:33N 33°43' W 118°14'3 2.8
2014-Dec-09 21:34N 33°45' W 118°16'1 1.1
2014-Dec-09 20:34N 33°44' W 118°17'0 0.0
2014-Dec-09 18:25N 33°44' W 118°17'0 0.0
2014-Dec-09 17:31N 33°44' W 118°17'3 3.3
2014-Dec-09 16:33N 33°45' W 118°13'2 2.0
2014-Dec-09 15:34N 33°46' W 118°13'0 0.3
2014-Dec-09 14:33N 33°46' W 118°13'2 1.6
2014-Dec-09 13:33N 33°45' W 118°13'  

Dump ship's entire track history